createdAt,value
2018-12-04T00:00:06.277Z,21.8
2018-12-04T00:00:56.283Z,21.8
2018-12-04T00:01:46.344Z,21.8
2018-12-04T00:02:36.662Z,21.8
2018-12-04T00:03:26.229Z,21.8
2018-12-04T00:04:16.237Z,21.8
2018-12-04T00:05:06.835Z,21.8
2018-12-04T00:05:56.950Z,21.8
2018-12-04T00:06:46.952Z,21.8
2018-12-04T00:25:01.794Z,21.7
2018-12-04T00:25:51.786Z,21.7
2018-12-04T00:26:41.853Z,21.6
2018-12-04T00:27:31.678Z,21.6
2018-12-04T00:28:21.426Z,21.6
2018-12-04T00:29:11.786Z,21.6
2018-12-04T00:30:01.782Z,21.6
2018-12-04T00:30:52.123Z,21.6
2018-12-04T00:31:42.168Z,21.6
2018-12-04T00:32:32.259Z,21.6
2018-12-04T00:33:22.292Z,21.6
2018-12-04T00:34:12.350Z,21.6
2018-12-04T00:35:02.492Z,21.6
2018-12-04T00:35:52.187Z,21.6
2018-12-04T00:36:42.235Z,21.6
2018-12-04T00:37:32.292Z,21.6
2018-12-04T00:38:22.350Z,21.6
2018-12-04T00:39:12.677Z,21.6
2018-12-04T00:40:02.545Z,21.6
2018-12-04T00:40:52.799Z,21.6
2018-12-04T00:41:42.857Z,21.6
2018-12-04T00:42:32.919Z,21.6
2018-12-04T00:43:22.967Z,21.6
2018-12-04T00:44:13.026Z,21.6
2018-12-04T00:45:03.095Z,21.6
2018-12-04T00:45:53.140Z,21.6
2018-12-04T00:46:42.972Z,21.5
2018-12-04T00:47:33.251Z,21.5
2018-12-04T00:48:23.316Z,21.6
2018-12-04T00:49:13.368Z,21.6
2018-12-04T00:50:03.431Z,21.5
2018-12-04T00:50:53.214Z,21.5
2018-12-04T00:51:43.541Z,21.5
2018-12-04T00:52:33.331Z,21.5
2018-12-04T00:53:23.655Z,21.5
2018-12-04T00:54:13.168Z,21.4
2018-12-04T00:55:03.770Z,21.4
2018-12-04T00:55:53.828Z,21.5
2018-12-04T00:56:43.618Z,21.5
2018-12-04T00:57:33.945Z,21.4
2018-12-04T00:58:23.773Z,21.5
2018-12-04T00:59:14.043Z,21.5
2018-12-04T01:00:04.140Z,21.4
2018-12-04T01:00:54.158Z,21.4
2018-12-04T01:01:44.220Z,21.5
2018-12-04T01:02:34.285Z,21.4
2018-12-04T01:03:24.345Z,21.4
2018-12-04T01:04:14.125Z,21.4
2018-12-04T01:05:04.180Z,21.4
2018-12-04T01:05:54.233Z,21.4
2018-12-04T01:06:44.570Z,21.4
2018-12-04T01:07:34.620Z,21.4
2018-12-04T01:08:24.408Z,21.4
2018-12-04T01:09:14.475Z,21.4
2018-12-04T01:10:04.805Z,21.4
2018-12-04T01:10:54.860Z,21.4
2018-12-04T01:11:44.919Z,21.4
2018-12-04T01:12:34.969Z,21.4
2018-12-04T01:13:25.027Z,21.4
2018-12-04T01:14:14.815Z,21.4
2018-12-04T01:15:04.595Z,21.3
2018-12-04T01:15:54.932Z,21.4
2018-12-04T01:16:45.263Z,21.3
2018-12-04T01:17:35.329Z,21.3
2018-12-04T01:18:25.102Z,21.3
2018-12-04T01:19:15.424Z,21.4
2018-12-04T01:20:05.492Z,21.3
2018-12-04T01:20:55.549Z,21.3
2018-12-04T01:21:45.607Z,21.3
2018-12-04T01:22:35.662Z,21.3
2018-12-04T01:23:25.720Z,21.3
2018-12-04T01:24:15.780Z,21.3
2018-12-04T01:25:05.889Z,21.3
2018-12-04T01:25:55.889Z,21.3
2018-12-04T01:26:45.946Z,21.3
2018-12-04T01:27:36.056Z,21.3
2018-12-04T01:28:26.056Z,21.3
2018-12-04T01:29:16.116Z,21.3
2018-12-04T01:30:06.169Z,21.3
2018-12-04T01:30:56.013Z,21.3
2018-12-04T01:31:46.294Z,21.3
2018-12-04T01:32:36.050Z,21.3
2018-12-04T01:33:26.139Z,21.3
2018-12-04T01:34:16.468Z,21.3
2018-12-04T01:35:06.515Z,21.3
2018-12-04T01:35:56.576Z,21.3
2018-12-04T01:36:46.625Z,21.3
2018-12-04T01:37:36.988Z,21.2
2018-12-04T01:38:26.468Z,21.2
2018-12-04T01:39:16.818Z,21.2
2018-12-04T01:40:06.861Z,21.2
2018-12-04T01:40:56.976Z,21.2
2018-12-04T01:41:46.983Z,21.2
2018-12-04T01:42:37.036Z,21.2
2018-12-04T01:43:26.820Z,21.2
2018-12-04T01:45:07.211Z,21.2
2018-12-04T01:45:56.995Z,21.2
2018-12-04T01:46:47.053Z,21.2
2018-12-04T01:47:37.631Z,21.2
2018-12-04T01:48:27.168Z,21.2
2018-12-04T01:49:17.512Z,21.2
2018-12-04T01:51:47.692Z,21.2
2018-12-04T01:55:57.944Z,21.1
2018-12-04T01:56:48.007Z,21.1
2018-12-04T01:58:28.174Z,21.1
2018-12-04T01:59:18.178Z,21.1
2018-12-04T02:03:28.466Z,21.1
2018-12-04T02:04:18.521Z,21.1
2018-12-04T02:05:08.589Z,21.1
2018-12-04T02:05:58.374Z,21.1
2018-12-04T02:06:48.701Z,21.1
2018-12-04T02:07:38.486Z,21
2018-12-04T02:08:28.806Z,21.1
2018-12-04T02:09:18.864Z,21
2018-12-04T02:10:08.641Z,21.1
2018-12-04T02:10:58.981Z,21
2018-12-04T02:11:49.046Z,21.1
2018-12-04T02:12:38.818Z,21.1
2018-12-04T02:13:28.876Z,21
2018-12-04T02:14:18.941Z,21
2018-12-04T02:15:09.266Z,21
2018-12-04T02:15:59.323Z,21
2018-12-04T02:16:49.107Z,21
2018-12-04T02:17:39.436Z,21
2018-12-04T02:18:29.495Z,21
2018-12-04T02:19:19.545Z,21
2018-12-04T02:20:09.615Z,21
2018-12-04T02:20:59.670Z,21
2018-12-04T02:21:49.728Z,21
2018-12-04T02:22:39.780Z,21
2018-12-04T02:23:29.837Z,21
2018-12-04T02:24:19.895Z,20.9
2018-12-04T02:25:09.945Z,20.9
2018-12-04T02:26:00.005Z,20.9
2018-12-04T02:26:50.070Z,20.9
2018-12-04T02:27:39.854Z,20.9
2018-12-04T02:28:30.172Z,20.9
2018-12-04T02:29:20.240Z,20.9
2018-12-04T02:30:10.337Z,20.9
2018-12-04T02:31:00.086Z,20.9
2018-12-04T02:31:50.423Z,20.9
2018-12-04T02:32:40.197Z,20.9
2018-12-04T02:33:30.530Z,20.9
2018-12-04T02:34:20.837Z,20.9
2018-12-04T02:35:10.099Z,20.9
2018-12-04T02:36:00.442Z,20.9
2018-12-04T02:36:50.765Z,20.9
2018-12-04T02:37:40.831Z,20.8
2018-12-04T02:38:30.601Z,20.9
2018-12-04T02:39:20.955Z,20.9
2018-12-04T02:40:10.439Z,20.9
2018-12-04T02:41:01.034Z,20.9
2018-12-04T02:41:51.094Z,20.9
2018-12-04T02:42:41.162Z,20.9
2018-12-04T02:43:31.217Z,20.8
2018-12-04T02:44:21.266Z,20.9
2018-12-04T02:45:11.324Z,20.8
2018-12-04T02:46:01.121Z,20.8
2018-12-04T02:46:51.172Z,20.8
2018-12-04T02:47:41.231Z,20.8
2018-12-04T02:48:31.295Z,20.8
2018-12-04T02:49:21.614Z,20.8
2018-12-04T02:50:11.926Z,20.8
2018-12-04T02:51:01.735Z,20.8
2018-12-04T02:51:51.523Z,20.8
2018-12-04T02:52:41.861Z,20.8
2018-12-04T02:53:31.706Z,20.8
2018-12-04T02:54:21.414Z,20.8
2018-12-04T02:55:12.016Z,20.8
2018-12-04T02:56:02.074Z,20.8
2018-12-04T02:56:51.868Z,20.8
2018-12-04T02:57:41.931Z,20.8
2018-12-04T02:58:31.966Z,20.8
2018-12-04T02:59:22.029Z,20.8
2018-12-04T03:00:12.090Z,20.8
2018-12-04T03:01:02.448Z,20.8
2018-12-04T03:01:52.476Z,20.8
2018-12-04T03:02:42.253Z,20.8
2018-12-04T03:03:32.585Z,20.8
2018-12-04T03:04:22.639Z,20.8
2018-12-04T03:05:12.705Z,20.8
2018-12-04T03:06:02.549Z,20.8
2018-12-04T03:06:52.533Z,20.7
2018-12-04T03:07:42.883Z,20.8
2018-12-04T03:08:32.917Z,20.8
2018-12-04T03:09:22.712Z,20.7
2018-12-04T03:10:13.068Z,20.7
2018-12-04T03:11:03.127Z,20.8
2018-12-04T03:11:53.177Z,20.7
2018-12-04T03:12:43.233Z,20.7
2018-12-04T03:13:33.285Z,20.7
2018-12-04T03:14:23.297Z,20.7
2018-12-04T03:15:13.116Z,20.7
2018-12-04T03:16:03.446Z,20.7
2018-12-04T03:16:53.234Z,20.7
2018-12-04T03:17:43.570Z,20.7
2018-12-04T03:18:33.341Z,20.7
2018-12-04T03:19:23.722Z,20.6
2018-12-04T03:20:13.470Z,20.6
2018-12-04T03:21:03.809Z,20.6
2018-12-04T03:21:53.850Z,20.6
2018-12-04T03:22:43.910Z,20.6
2018-12-04T03:23:33.968Z,20.6
2018-12-04T03:24:24.080Z,20.6
2018-12-04T03:25:13.537Z,20.6
2018-12-04T03:26:04.135Z,20.6
2018-12-04T03:26:53.918Z,20.6
2018-12-04T03:27:44.250Z,20.6
2018-12-04T03:28:33.762Z,20.6
2018-12-04T03:29:24.094Z,20.6
2018-12-04T03:30:14.493Z,20.6
2018-12-04T03:31:04.521Z,20.6
2018-12-04T03:31:54.645Z,20.6
2018-12-04T03:32:44.630Z,20.6
2018-12-04T03:33:34.687Z,20.6
2018-12-04T03:34:24.702Z,20.6
2018-12-04T03:35:14.507Z,20.6
2018-12-04T03:36:04.559Z,20.6
2018-12-04T03:36:54.334Z,20.6
2018-12-04T03:37:44.659Z,20.6
2018-12-04T03:38:34.994Z,20.6
2018-12-04T03:39:25.047Z,20.6
2018-12-04T03:40:15.109Z,20.6
2018-12-04T03:41:05.176Z,20.5
2018-12-04T03:41:55.211Z,20.6
2018-12-04T03:42:45.276Z,20.5
2018-12-04T03:43:35.331Z,20.6
2018-12-04T03:44:25.397Z,20.6
2018-12-04T03:45:15.184Z,20.6
2018-12-04T03:46:05.510Z,20.5
2018-12-04T03:46:55.560Z,20.5
2018-12-04T03:47:45.347Z,20.5
2018-12-04T03:48:35.684Z,20.5
2018-12-04T03:49:25.736Z,20.5
2018-12-04T03:50:15.491Z,20.5
2018-12-04T03:51:05.840Z,20.5
2018-12-04T03:51:55.904Z,20.5
2018-12-04T03:52:45.691Z,20.5
2018-12-04T03:53:35.745Z,20.5
2018-12-04T03:54:26.097Z,20.4
2018-12-04T03:55:16.137Z,20.5
2018-12-04T03:56:06.200Z,20.5
2018-12-04T03:56:56.246Z,20.5
2018-12-04T03:57:46.308Z,20.5
2018-12-04T03:58:36.102Z,20.4
2018-12-04T03:59:26.417Z,20.4
2018-12-04T04:00:16.478Z,20.4
2018-12-04T04:01:06.315Z,20.4
2018-12-04T04:01:56.593Z,20.4
2018-12-04T04:02:46.960Z,20.4
2018-12-04T04:03:36.729Z,20.4
2018-12-04T04:04:26.785Z,20.5
2018-12-04T04:05:16.557Z,20.5
2018-12-04T04:06:06.882Z,20.4
2018-12-04T04:06:56.658Z,20.4
2018-12-04T04:07:46.716Z,20.4
2018-12-04T04:08:36.505Z,20.4
2018-12-04T04:09:27.097Z,20.4
2018-12-04T04:10:18.252Z,20.4
2018-12-04T04:11:07.230Z,20.4
2018-12-04T04:11:57.298Z,20.4
2018-12-04T04:12:47.070Z,20.4
2018-12-04T04:13:37.405Z,20.4
2018-12-04T04:14:27.709Z,20.4
2018-12-04T04:15:17.596Z,20.4
2018-12-04T04:16:07.285Z,20.4
2018-12-04T04:16:57.625Z,20.4
2018-12-04T04:17:47.677Z,20.4
2018-12-04T04:18:37.732Z,20.4
2018-12-04T04:19:27.525Z,20.4
2018-12-04T04:20:17.852Z,20.4
2018-12-04T04:21:07.932Z,20.3
2018-12-04T04:21:57.967Z,20.4
2018-12-04T04:22:48.025Z,20.3
2018-12-04T04:23:38.110Z,20.4
2018-12-04T04:24:27.864Z,20.3
2018-12-04T04:25:18.799Z,20.3
2018-12-04T04:26:07.984Z,20.3
2018-12-04T04:26:58.331Z,20.3
2018-12-04T04:27:48.084Z,20.3
2018-12-04T04:28:38.422Z,20.3
2018-12-04T04:29:28.481Z,20.3
2018-12-04T04:30:18.279Z,20.3
2018-12-04T04:31:08.312Z,20.3
2018-12-04T04:31:58.391Z,20.3
2018-12-04T04:32:48.707Z,20.3
2018-12-04T04:33:38.769Z,20.3
2018-12-04T04:34:28.295Z,20.3
2018-12-04T04:35:18.875Z,20.3
2018-12-04T04:36:08.938Z,20.3
2018-12-04T04:36:59.008Z,20.3
2018-12-04T04:54:19.081Z,20.2
2018-12-04T04:55:09.078Z,20.2
2018-12-04T04:55:58.623Z,20.2
2018-12-04T04:56:48.674Z,20.2
2018-12-04T04:57:38.739Z,20.1
2018-12-04T04:58:29.071Z,20.2
2018-12-04T04:59:19.375Z,20.1
2018-12-04T05:00:09.461Z,20.1
2018-12-04T05:00:59.220Z,20.1
2018-12-04T05:01:49.273Z,20.1
2018-12-04T05:02:39.328Z,20.1
2018-12-04T05:03:29.110Z,20.1
2018-12-04T05:04:19.445Z,20.1
2018-12-04T05:05:09.500Z,20.1
2018-12-04T05:05:59.286Z,20.1
2018-12-04T05:06:49.342Z,20.1
2018-12-04T05:07:39.675Z,20.1
2018-12-04T05:08:29.761Z,20.1
2018-12-04T05:09:19.797Z,20.1
2018-12-04T05:10:09.847Z,20.1
2018-12-04T05:10:59.905Z,20.1
2018-12-04T05:11:49.685Z,20.1
2018-12-04T05:12:40.008Z,20.1
2018-12-04T05:13:30.079Z,20.1
2018-12-04T05:14:19.867Z,20.1
2018-12-04T05:15:10.193Z,20.1
2018-12-04T05:16:00.256Z,20.1
2018-12-04T05:16:50.041Z,20.1
2018-12-04T05:17:40.361Z,20.1
2018-12-04T05:18:30.430Z,20.1
2018-12-04T05:19:20.200Z,20.1
2018-12-04T05:20:10.267Z,20.1
2018-12-04T05:21:00.317Z,20.1
2018-12-04T05:21:50.633Z,20
2018-12-04T05:22:40.704Z,20.1
2018-12-04T05:23:30.758Z,20.1
2018-12-04T05:24:20.807Z,20.1
2018-12-04T05:25:10.599Z,20.1
2018-12-04T05:26:00.680Z,20.1
2018-12-04T05:26:50.986Z,20.1
2018-12-04T05:27:41.050Z,20.1
2018-12-04T05:28:30.831Z,20.1
2018-12-04T05:29:21.153Z,20.1
2018-12-04T05:30:11.220Z,20
2018-12-04T05:31:01.246Z,20.1
2018-12-04T05:31:51.328Z,20.1
2018-12-04T05:32:41.381Z,20.1
2018-12-04T05:33:31.174Z,20
2018-12-04T05:34:21.553Z,20
2018-12-04T05:35:11.278Z,20.1
2018-12-04T05:36:01.655Z,20
2018-12-04T05:36:51.676Z,20.1
2018-12-04T05:37:41.725Z,20.1
2018-12-04T05:38:31.808Z,20.1
2018-12-04T05:39:21.620Z,20.1
2018-12-04T05:40:11.618Z,20.1
2018-12-04T05:41:01.955Z,20.1
2018-12-04T05:41:52.010Z,20.1
2018-12-04T05:42:41.799Z,20.1
2018-12-04T05:43:32.130Z,20.1
2018-12-04T05:44:22.190Z,20.1
2018-12-04T05:45:12.235Z,20.1
2018-12-04T05:46:01.795Z,20.1
2018-12-04T05:46:52.347Z,20.1
2018-12-04T05:47:42.142Z,20.1
2018-12-04T05:48:32.455Z,20.1
2018-12-04T05:49:22.254Z,20.1
2018-12-04T05:50:12.567Z,20.1
2018-12-04T05:51:02.628Z,20.1
2018-12-04T05:51:52.419Z,20.1
2018-12-04T05:52:42.760Z,20.1
2018-12-04T05:53:32.809Z,20.1
2018-12-04T05:54:22.579Z,20.1
2018-12-04T05:55:12.917Z,20.1
2018-12-04T05:56:02.977Z,20.1
2018-12-04T05:56:52.762Z,20.1
2018-12-04T05:57:43.100Z,20.1
2018-12-04T05:58:33.151Z,20.1
2018-12-04T05:59:23.206Z,20.1
2018-12-04T06:00:13.319Z,20.1
2018-12-04T06:01:03.039Z,20.1
2018-12-04T06:01:53.096Z,20.1
2018-12-04T06:02:43.146Z,20.1
2018-12-04T06:03:33.529Z,20.1
2018-12-04T06:04:23.278Z,20.1
2018-12-04T06:05:13.613Z,20.1
2018-12-04T06:06:03.668Z,20.1
2018-12-04T06:06:53.951Z,20.1
2018-12-04T06:07:43.500Z,20.1
2018-12-04T06:08:33.816Z,20.1
2018-12-04T06:09:23.880Z,20.1
2018-12-04T06:10:13.385Z,20.1
2018-12-04T06:11:03.985Z,20.1
2018-12-04T06:11:53.777Z,20.2
2018-12-04T06:12:44.108Z,20.1
2018-12-04T06:13:33.880Z,20.1
2018-12-04T06:14:23.930Z,20.1
2018-12-04T06:15:14.262Z,20.1
2018-12-04T06:16:04.334Z,20.1
2018-12-04T06:16:54.382Z,20.1
2018-12-04T06:17:44.177Z,20.1
2018-12-04T06:18:34.495Z,20.2
2018-12-04T06:19:24.552Z,20.2
2018-12-04T06:20:14.610Z,20.2
2018-12-04T06:21:04.397Z,20.2
2018-12-04T06:21:55.027Z,20.2
2018-12-04T06:22:44.232Z,20.2
2018-12-04T06:23:34.830Z,20.2
2018-12-04T06:24:24.885Z,20.2
2018-12-04T06:25:14.957Z,20.2
2018-12-04T06:26:05.314Z,20.2
2018-12-04T06:26:55.069Z,20.2
2018-12-04T06:27:45.121Z,20.2
2018-12-04T06:28:35.179Z,20.3
2018-12-04T06:29:25.236Z,20.2
2018-12-04T06:30:15.306Z,20.2
2018-12-04T06:31:05.348Z,20.3
2018-12-04T06:31:55.401Z,20.3
2018-12-04T06:32:45.179Z,20.3
2018-12-04T06:33:35.514Z,20.2
2018-12-04T06:34:25.306Z,20.3
2018-12-04T06:35:15.642Z,20.3
2018-12-04T06:36:05.686Z,20.3
2018-12-04T06:36:55.461Z,20.3
2018-12-04T06:37:45.530Z,20.3
2018-12-04T06:38:35.581Z,20.3
2018-12-04T06:39:25.953Z,20.3
2018-12-04T06:40:15.972Z,20.3
2018-12-04T06:41:06.035Z,20.3
2018-12-04T06:41:56.130Z,20.3
2018-12-04T06:42:46.188Z,20.3
2018-12-04T06:43:36.195Z,20.3
2018-12-04T06:44:26.502Z,20.3
2018-12-04T06:45:16.306Z,20.3
2018-12-04T06:46:06.370Z,20.3
2018-12-04T06:46:56.420Z,20.3
2018-12-04T06:47:46.472Z,20.3
2018-12-04T06:48:36.543Z,20.3
2018-12-04T06:49:26.380Z,20.3
2018-12-04T06:50:16.385Z,20.3
2018-12-04T06:51:06.442Z,20.3
2018-12-04T06:51:56.765Z,20.3
2018-12-04T06:52:46.560Z,20.3
2018-12-04T06:53:36.622Z,20.4
2018-12-04T06:54:26.670Z,20.4
2018-12-04T06:55:17.002Z,20.4
2018-12-04T06:56:06.775Z,20.4
2018-12-04T06:56:56.832Z,20.4
2018-12-04T06:57:46.625Z,20.4
2018-12-04T06:58:37.217Z,20.4
2018-12-04T06:59:27.280Z,20.4
2018-12-04T07:00:17.052Z,20.4
2018-12-04T07:01:06.837Z,20.4
2018-12-04T07:01:57.442Z,20.4
2018-12-04T07:02:47.255Z,20.4
2018-12-04T07:03:37.567Z,20.4
2018-12-04T07:04:27.622Z,20.4
2018-12-04T07:05:17.402Z,20.4
2018-12-04T07:06:07.720Z,20.4
2018-12-04T07:06:57.784Z,20.4
2018-12-04T07:07:47.849Z,20.4
2018-12-04T07:08:37.899Z,20.4
2018-12-04T07:09:27.956Z,20.4
2018-12-04T07:10:18.016Z,20.4
2018-12-04T07:11:07.800Z,20.4
2018-12-04T07:12:02.955Z,20.4
2018-12-04T07:12:48.187Z,20.4
2018-12-04T07:13:38.246Z,20.4
2018-12-04T07:14:28.288Z,20.4
2018-12-04T07:15:18.090Z,20.4
2018-12-04T07:16:07.873Z,20.4
2018-12-04T07:16:58.463Z,20.4
2018-12-04T07:17:48.518Z,20.4
2018-12-04T07:18:38.574Z,20.4
2018-12-04T07:19:28.353Z,20.4
2018-12-04T07:20:18.404Z,20.4
2018-12-04T07:21:08.756Z,20.4
2018-12-04T07:21:58.798Z,20.5
2018-12-04T07:22:48.868Z,20.5
2018-12-04T07:23:38.651Z,20.5
2018-12-04T07:24:28.990Z,20.5
2018-12-04T07:25:19.038Z,20.5
2018-12-04T07:26:08.836Z,20.5
2018-12-04T07:26:59.194Z,20.5
2018-12-04T07:27:49.207Z,20.5
2018-12-04T07:28:38.990Z,20.5
2018-12-04T07:29:29.318Z,20.5
2018-12-04T07:30:19.370Z,20.6
2018-12-04T07:31:09.395Z,20.6
2018-12-04T07:31:59.208Z,20.6
2018-12-04T07:32:49.543Z,20.6
2018-12-04T07:33:39.337Z,20.6
2018-12-04T07:34:29.387Z,20.6
2018-12-04T07:35:19.451Z,20.6
2018-12-04T07:36:09.777Z,20.6
2018-12-04T07:37:00.129Z,20.6
2018-12-04T07:37:49.619Z,20.6
2018-12-04T07:38:39.944Z,20.6
2018-12-04T07:39:30.016Z,20.6
2018-12-04T07:40:20.059Z,20.6
2018-12-04T07:41:10.122Z,20.6
2018-12-04T07:42:00.177Z,20.6
2018-12-04T07:42:49.949Z,20.6
2018-12-04T07:43:40.284Z,20.6
2018-12-04T07:44:30.334Z,20.6
2018-12-04T07:45:20.394Z,20.6
2018-12-04T07:46:10.454Z,20.6
2018-12-04T07:47:00.519Z,20.6
2018-12-04T07:47:50.557Z,20.6
2018-12-04T07:48:40.066Z,20.6
2018-12-04T07:49:30.417Z,20.6
2018-12-04T07:50:20.486Z,20.6
2018-12-04T07:51:10.787Z,20.6
2018-12-04T07:52:00.849Z,20.6
2018-12-04T07:52:50.906Z,20.6
2018-12-04T07:53:40.673Z,20.6
2018-12-04T07:54:31.018Z,20.6
2018-12-04T07:55:21.069Z,20.6
2018-12-04T07:56:10.856Z,20.6
2018-12-04T07:57:01.198Z,20.7
2018-12-04T07:57:51.244Z,20.7
2018-12-04T07:58:41.311Z,20.6
2018-12-04T07:59:31.363Z,20.6
2018-12-04T08:00:21.131Z,20.7
2018-12-04T08:01:11.478Z,20.7
2018-12-04T08:02:01.275Z,20.7
2018-12-04T08:02:51.889Z,20.7
2018-12-04T08:03:41.642Z,20.7
2018-12-04T08:04:31.693Z,20.7
2018-12-04T08:05:21.748Z,20.7
2018-12-04T08:06:11.823Z,20.7
2018-12-04T08:07:01.870Z,20.7
2018-12-04T08:07:52.252Z,20.7
2018-12-04T08:08:41.700Z,20.7
2018-12-04T08:09:31.757Z,20.7
2018-12-04T08:10:21.835Z,20.8
2018-12-04T08:11:11.867Z,20.8
2018-12-04T08:12:01.983Z,20.8
2018-12-04T08:12:52.260Z,20.8
2018-12-04T08:13:42.321Z,20.8
2018-12-04T08:14:32.376Z,20.8
2018-12-04T08:15:22.430Z,20.8
2018-12-04T08:16:12.491Z,20.8
2018-12-04T08:17:02.542Z,20.8
2018-12-04T08:17:52.342Z,20.8
2018-12-04T08:18:42.677Z,20.8
2018-12-04T08:19:32.954Z,20.8
2018-12-04T08:20:22.777Z,20.8
2018-12-04T08:21:13.129Z,20.8
2018-12-04T08:22:02.889Z,20.8
2018-12-04T08:22:52.948Z,20.8
2018-12-04T08:23:42.994Z,20.8
2018-12-04T08:24:33.059Z,20.8
2018-12-04T08:25:23.116Z,20.8
2018-12-04T08:26:13.172Z,20.8
2018-12-04T08:27:03.233Z,20.8
2018-12-04T08:27:53.021Z,20.8
2018-12-04T08:28:42.801Z,20.8
2018-12-04T08:29:33.123Z,20.8
2018-12-04T08:30:23.696Z,20.8
2018-12-04T08:31:13.515Z,20.8
2018-12-04T08:32:03.582Z,20.8
2018-12-04T08:32:53.617Z,20.8
2018-12-04T08:33:43.403Z,20.8
2018-12-04T08:34:33.468Z,20.8
2018-12-04T08:35:23.795Z,20.8
2018-12-04T08:36:13.856Z,20.8
2018-12-04T08:37:03.910Z,20.9
2018-12-04T08:37:53.982Z,20.9
2018-12-04T08:38:44.022Z,20.9
2018-12-04T08:39:33.800Z,20.9
2018-12-04T08:40:24.134Z,20.9
2018-12-04T08:41:14.175Z,20.9
2018-12-04T08:42:04.228Z,20.9
2018-12-04T08:42:54.291Z,20.9
2018-12-04T08:43:44.603Z,20.9
2018-12-04T08:44:34.410Z,20.9
2018-12-04T08:45:24.469Z,20.9
2018-12-04T08:46:14.512Z,20.9
2018-12-04T08:47:04.589Z,20.9
2018-12-04T08:47:54.632Z,20.9
2018-12-04T08:48:44.700Z,20.9
2018-12-04T08:49:34.754Z,20.9
2018-12-04T08:50:24.805Z,20.9
2018-12-04T08:51:14.860Z,20.9
2018-12-04T08:52:04.899Z,20.9
2018-12-04T08:52:54.987Z,20.9
2018-12-04T09:08:43.458Z,21
2018-12-04T09:09:33.874Z,21
2018-12-04T09:10:23.756Z,21
2018-12-04T09:11:13.461Z,21
2018-12-04T09:12:03.788Z,21
2018-12-04T09:12:53.575Z,21
2018-12-04T09:13:43.901Z,21
2018-12-04T09:14:39.478Z,21
2018-12-04T09:15:23.998Z,21.1
2018-12-04T09:16:13.812Z,21.1
2018-12-04T09:17:03.581Z,21.1
2018-12-04T09:17:54.188Z,21.1
2018-12-04T09:18:44.296Z,21.1
2018-12-04T09:19:34.413Z,21.1
2018-12-04T09:20:24.534Z,21.1
2018-12-04T09:21:14.302Z,21.1
2018-12-04T09:22:04.563Z,21.1
2018-12-04T09:22:54.577Z,21.1
2018-12-04T09:23:44.703Z,21.1
2018-12-04T09:25:24.802Z,21.1
2018-12-04T09:26:14.978Z,21.1
2018-12-04T09:27:06.797Z,21.1
2018-12-04T09:39:35.702Z,21.2
2018-12-04T09:40:25.704Z,21.2
2018-12-04T09:41:15.822Z,21.2
2018-12-04T09:42:05.828Z,21.2
2018-12-04T09:42:55.333Z,21.2
2018-12-04T09:43:45.931Z,21.2
2018-12-04T09:44:35.996Z,21.2
2018-12-04T09:45:26.044Z,21.2
2018-12-04T09:46:15.555Z,21.2
2018-12-04T09:47:06.151Z,21.2
2018-12-04T09:47:55.948Z,21.2
2018-12-04T09:48:46.263Z,21.2
2018-12-04T09:49:36.332Z,21.2
2018-12-04T09:50:26.388Z,21.2
2018-12-04T09:51:16.450Z,21.2
2018-12-04T09:52:05.953Z,21.2
2018-12-04T09:52:56.561Z,21.2
2018-12-04T09:53:52.473Z,21.2
2018-12-04T09:54:36.678Z,21.2
2018-12-04T09:55:26.721Z,21.3
2018-12-04T09:56:16.551Z,21.3
2018-12-04T09:57:06.548Z,21.3
2018-12-04T09:57:56.895Z,21.3
2018-12-04T09:58:46.952Z,21.3
2018-12-04T09:59:40.327Z,21.3
2018-12-04T10:00:27.067Z,21.3
2018-12-04T10:01:16.850Z,21.3
2018-12-04T10:02:07.180Z,21.3
2018-12-04T10:02:57.239Z,21.3
2018-12-04T10:03:47.012Z,21.3
2018-12-04T10:04:37.122Z,21.3
2018-12-04T10:05:27.408Z,21.3
2018-12-04T10:06:17.178Z,21.3
2018-12-04T10:07:07.319Z,21.3
2018-12-04T10:07:57.573Z,21.3
2018-12-04T10:08:47.635Z,21.3
2018-12-04T10:09:37.680Z,21.3
2018-12-04T10:10:27.739Z,21.3
2018-12-04T10:11:17.539Z,21.3
2018-12-04T10:12:07.864Z,21.3
2018-12-04T10:12:58.012Z,21.3
2018-12-04T10:13:47.990Z,21.3
2018-12-04T10:14:38.267Z,21.3
2018-12-04T10:15:28.089Z,21.3
2018-12-04T10:16:17.597Z,21.3
2018-12-04T10:17:08.180Z,21.3
2018-12-04T10:17:58.264Z,21.3
2018-12-04T10:18:48.291Z,21.3
2018-12-04T10:19:38.369Z,21.3
2018-12-04T10:20:28.162Z,21.3
2018-12-04T10:21:18.206Z,21.4
2018-12-04T10:22:08.543Z,21.3
2018-12-04T10:22:58.609Z,21.3
2018-12-04T10:23:48.666Z,21.4
2018-12-04T10:24:38.718Z,21.4
2018-12-04T10:25:28.774Z,21.4
2018-12-04T10:26:18.551Z,21.4
2018-12-04T10:27:08.888Z,21.4
2018-12-04T10:27:58.953Z,21.4
2018-12-04T10:28:48.733Z,21.4
2018-12-04T10:29:39.053Z,21.4
2018-12-04T10:30:29.116Z,21.4
2018-12-04T10:31:19.168Z,21.4
2018-12-04T10:32:09.235Z,21.4
2018-12-04T10:32:59.271Z,21.4
2018-12-04T10:33:49.350Z,21.4
2018-12-04T10:34:39.400Z,21.4
2018-12-04T10:35:29.452Z,21.4
2018-12-04T10:36:19.526Z,21.4
2018-12-04T10:37:09.550Z,21.4
2018-12-04T10:38:00.738Z,21.4
2018-12-04T10:38:49.420Z,21.4
2018-12-04T10:39:39.749Z,21.4
2018-12-04T10:40:29.794Z,21.4
2018-12-04T10:41:19.852Z,21.4
2018-12-04T10:42:09.914Z,21.4
2018-12-04T10:42:59.962Z,21.4
2018-12-04T10:43:49.752Z,21.4
2018-12-04T10:44:40.084Z,21.4
2018-12-04T10:45:29.866Z,21.4
2018-12-04T10:46:20.244Z,21.4
2018-12-04T10:47:09.972Z,21.4
2018-12-04T10:48:00.346Z,21.4
2018-12-04T10:48:50.091Z,21.4
2018-12-04T10:49:40.968Z,21.4
2018-12-04T10:50:29.947Z,21.4
2018-12-04T10:51:20.551Z,21.4
2018-12-04T10:52:10.589Z,21.4
2018-12-04T10:53:00.364Z,21.4
2018-12-04T10:53:50.433Z,21.4
2018-12-04T10:54:40.481Z,21.4
2018-12-04T10:55:30.544Z,21.4
2018-12-04T10:56:20.868Z,21.3
2018-12-04T10:57:10.693Z,21.3
2018-12-04T10:58:00.992Z,21.2
2018-12-04T10:59:40.836Z,21.1
2018-12-04T11:00:30.881Z,21
2018-12-04T11:01:21.213Z,21
2018-12-04T11:02:11.269Z,20.9
2018-12-04T11:03:01.038Z,20.9
2018-12-04T11:03:51.122Z,20.9
2018-12-04T11:04:41.448Z,20.9
2018-12-04T11:05:31.843Z,20.9
2018-12-04T11:06:21.565Z,20.9
2018-12-04T11:07:11.916Z,21
2018-12-04T11:08:01.669Z,21
2018-12-04T11:08:51.733Z,21
2018-12-04T11:09:41.773Z,21
2018-12-04T11:10:31.827Z,21.1
2018-12-04T11:11:21.627Z,21
2018-12-04T11:12:13.655Z,21.1
2018-12-04T11:13:02.006Z,21
2018-12-04T11:13:51.517Z,21.1
2018-12-04T11:14:42.130Z,21.1
2018-12-04T11:15:32.190Z,21.1
2018-12-04T11:16:21.963Z,21.1
2018-12-04T11:17:12.287Z,21.1
2018-12-04T11:18:02.575Z,21.1
2018-12-04T11:18:52.160Z,21.1
2018-12-04T11:20:32.252Z,21.1
2018-12-04T11:21:22.560Z,21.1
2018-12-04T11:22:12.625Z,21.1
2018-12-04T11:23:02.418Z,21.1
2018-12-04T11:25:32.865Z,21.1
2018-12-04T11:26:22.647Z,21.1
2018-12-04T11:27:12.709Z,21.1
2018-12-04T11:28:53.096Z,21.1
2018-12-04T11:31:23.249Z,21.1
2018-12-04T11:34:43.198Z,21.1
2018-12-04T11:47:14.043Z,21.1
2018-12-04T11:48:04.433Z,21.1
2018-12-04T11:50:34.293Z,21.1
2018-12-04T11:51:24.611Z,21.1
2018-12-04T11:53:04.696Z,21.1
2018-12-04T11:53:54.788Z,21.1
2018-12-04T11:55:34.886Z,21.1
2018-12-04T11:57:15.019Z,21.1
2018-12-04T11:58:04.785Z,21.1
2018-12-04T11:58:55.121Z,21.1
2018-12-04T11:59:45.173Z,21.1
2018-12-04T12:00:35.235Z,21.1
2018-12-04T12:01:24.755Z,21.1
2018-12-04T12:02:15.351Z,21.1
2018-12-04T12:03:05.125Z,21.1
2018-12-04T12:03:55.455Z,21.1
2018-12-04T12:04:45.252Z,21.1
2018-12-04T12:05:35.570Z,21.1
2018-12-04T12:06:25.358Z,21.1
2018-12-04T12:07:21.477Z,21.1
2018-12-04T12:08:05.747Z,21.1
2018-12-04T12:08:55.800Z,21.1
2018-12-04T12:09:45.582Z,21.1
2018-12-04T12:10:35.923Z,21.1
2018-12-04T12:11:25.424Z,21.1
2018-12-04T12:12:15.759Z,21.1
2018-12-04T12:13:06.084Z,21.1
2018-12-04T12:13:55.867Z,21.1
2018-12-04T12:14:46.202Z,21.1
2018-12-04T12:15:36.249Z,21.1
2018-12-04T12:16:26.085Z,21.1
2018-12-04T12:17:16.369Z,21.1
2018-12-04T12:18:06.147Z,21.1
2018-12-04T12:18:56.474Z,21
2018-12-04T12:19:46.539Z,21
2018-12-04T12:20:36.329Z,21
2018-12-04T12:21:26.657Z,21
2018-12-04T12:22:16.717Z,21
2018-12-04T12:23:06.491Z,21
2018-12-04T12:23:57.076Z,21
2018-12-04T12:24:46.606Z,21
2018-12-04T12:25:36.985Z,21
2018-12-04T12:26:26.988Z,21
2018-12-04T12:27:17.049Z,21
2018-12-04T12:28:07.097Z,21
2018-12-04T12:28:57.521Z,21
2018-12-04T12:29:47.235Z,21
2018-12-04T12:30:37.281Z,21
2018-12-04T12:31:27.064Z,21
2018-12-04T12:32:17.395Z,21
2018-12-04T12:33:07.441Z,21
2018-12-04T12:33:57.509Z,20.9
2018-12-04T12:34:47.558Z,20.9
2018-12-04T12:35:37.349Z,21
2018-12-04T12:36:27.672Z,20.9
2018-12-04T12:37:18.031Z,20.9
2018-12-04T12:38:07.521Z,20.9
2018-12-04T12:38:57.582Z,21
2018-12-04T12:39:47.906Z,20.9
2018-12-04T12:40:37.969Z,20.9
2018-12-04T12:41:28.030Z,20.9
2018-12-04T12:42:18.086Z,20.9
2018-12-04T12:43:08.149Z,20.9
2018-12-04T12:44:48.277Z,20.9
2018-12-04T12:45:38.318Z,20.9